Time;durP1;ratioP1;P1;durP2;ratioP2;P2;SDS_P1;SDS_P2;PMS_P1;PMS_P2;Temp;Humidity;BMP_temperature;BMP_pressure;BME280_temperature;BME280_humidity;BME280_pressure;Samples;Min_cycle;Max_cycle;Signal;HPM_P1;HPM_P2
2021/09/06 00:01:39;;;;;;;0.00;0.00;;;9.20;81.60;;;;;;5054831;28;20389;-74
2021/09/06 00:04:04;;;;;;;0.00;0.00;;;9.20;81.90;;;;;;5054576;28;20473;-74
2021/09/06 00:06:31;;;;;;;0.10;0.10;;;9.20;82.10;;;;;;5054604;28;20037;-74
2021/09/06 00:08:57;;;;;;;0.10;0.10;;;9.20;82.10;;;;;;5054438;28;20021;-74
2021/09/06 00:11:22;;;;;;;0.10;0.10;;;9.10;82.40;;;;;;5054479;28;20392;-74
2021/09/06 00:13:51;;;;;;;0.00;0.00;;;9.10;82.60;;;;;;5054391;28;20025;-74
2021/09/06 00:16:17;;;;;;;0.00;0.00;;;9.10;83.00;;;;;;5052960;28;20442;-74
2021/09/06 00:18:43;;;;;;;0.00;0.00;;;9.10;83.10;;;;;;5054183;28;20152;-74
2021/09/06 00:21:09;;;;;;;0.00;0.00;;;9.10;83.30;;;;;;5054189;28;20025;-74
2021/09/06 00:23:35;;;;;;;0.00;0.00;;;9.10;83.40;;;;;;5054220;28;20020;-74
2021/09/06 00:26:01;;;;;;;0.00;0.00;;;9.10;83.80;;;;;;5054186;28;20044;-74
2021/09/06 00:28:27;;;;;;;0.10;0.10;;;9.00;84.00;;;;;;5054546;28;20108;-74
2021/09/06 00:30:53;;;;;;;0.00;0.00;;;9.00;84.10;;;;;;5053013;28;20120;-74
2021/09/06 00:33:19;;;;;;;0.00;0.00;;;9.00;84.10;;;;;;5054859;28;20043;-74
2021/09/06 00:35:46;;;;;;;0.10;0.10;;;9.00;84.20;;;;;;5054393;28;20021;-74
2021/09/06 00:38:12;;;;;;;0.10;0.10;;;8.90;84.50;;;;;;5054787;28;20084;-74
2021/09/06 00:40:38;;;;;;;0.00;0.00;;;8.90;84.90;;;;;;5054099;28;20045;-74
2021/09/06 00:43:04;;;;;;;0.00;0.00;;;8.90;85.20;;;;;;5054241;28;20067;-74
2021/09/06 00:45:30;;;;;;;0.00;0.00;;;8.90;85.50;;;;;;5052504;28;20414;-74
2021/09/06 00:47:56;;;;;;;0.00;0.00;;;8.90;85.80;;;;;;5054155;28;20037;-74
2021/09/06 00:50:22;;;;;;;0.10;0.10;;;8.80;85.70;;;;;;5053800;28;20043;-74
2021/09/06 00:52:48;;;;;;;0.00;0.00;;;8.80;86.10;;;;;;5053707;28;20494;-74
2021/09/06 00:55:16;;;;;;;0.10;0.10;;;8.80;86.50;;;;;;5055000;28;20025;-74
2021/09/06 00:57:43;;;;;;;0.00;0.00;;;8.80;86.80;;;;;;5053787;28;20044;-74
2021/09/06 01:00:10;;;;;;;0.03;0.03;;;8.80;86.90;;;;;;5053615;28;20428;-74
2021/09/06 01:02:36;;;;;;;0.00;0.00;;;8.80;87.10;;;;;;5054279;28;20033;-74
2021/09/06 01:05:03;;;;;;;0.10;0.10;;;8.80;87.30;;;;;;5053502;28;20017;-74
2021/09/06 01:07:29;;;;;;;0.10;0.10;;;8.80;87.30;;;;;;5052296;28;20075;-74
2021/09/06 01:09:55;;;;;;;0.00;0.00;;;8.70;87.80;;;;;;5052122;28;20099;-74
2021/09/06 01:12:20;;;;;;;0.00;0.00;;;8.70;88.00;;;;;;5053558;28;20044;-74
2021/09/06 01:14:46;;;;;;;0.10;0.10;;;8.70;87.90;;;;;;5053397;28;20029;-74
2021/09/06 01:17:12;;;;;;;0.00;0.00;;;8.70;88.20;;;;;;5053388;28;20470;-74
2021/09/06 01:19:38;;;;;;;0.10;0.10;;;8.60;88.50;;;;;;5053255;28;20021;-74
2021/09/06 01:22:06;;;;;;;0.00;0.00;;;8.60;88.60;;;;;;5053347;28;20087;-74
2021/09/06 01:24:33;;;;;;;0.03;0.03;;;8.60;89.00;;;;;;5053326;28;20013;-74
2021/09/06 01:26:59;;;;;;;0.03;0.03;;;8.60;89.30;;;;;;5053330;28;20100;-74
2021/09/06 01:29:25;;;;;;;0.00;0.00;;;8.60;89.60;;;;;;5053172;28;20067;-74
2021/09/06 01:31:50;;;;;;;0.00;0.00;;;8.60;89.70;;;;;;5053379;28;20076;-74
2021/09/06 01:34:16;;;;;;;0.00;0.00;;;8.60;89.90;;;;;;5053111;28;20033;-74
2021/09/06 01:36:42;;;;;;;0.10;0.10;;;8.50;90.00;;;;;;5053013;28;20033;-74
2021/09/06 01:39:07;;;;;;;0.00;0.00;;;8.50;90.00;;;;;;5053046;28;20022;-74
2021/09/06 01:41:33;;;;;;;0.05;0.05;;;8.50;90.10;;;;;;5053239;28;20033;-74
2021/09/06 01:43:59;;;;;;;0.08;0.08;;;8.50;90.20;;;;;;5051648;28;20017;-74
2021/09/06 01:46:30;;;;;;;0.08;0.08;;;8.50;90.20;;;;;;5053051;28;20033;-74
2021/09/06 01:48:57;;;;;;;0.00;0.00;;;8.50;90.30;;;;;;5053001;28;20025;-74
2021/09/06 01:51:24;;;;;;;0.10;0.10;;;8.50;90.50;;;;;;5052993;28;20382;-74
2021/09/06 01:56:24;;;;;;;0.00;0.00;;;8.40;90.60;;;;;;5071697;28;20048;-75
2021/09/06 01:58:51;;;;;;;0.10;0.10;;;8.40;90.60;;;;;;5072912;28;20049;-75
2021/09/06 02:01:17;;;;;;;0.00;0.00;;;8.40;90.60;;;;;;5072905;28;20021;-75
2021/09/06 02:03:42;;;;;;;0.00;0.00;;;8.30;90.80;;;;;;5074119;28;20050;-75
2021/09/06 02:06:08;;;;;;;0.00;0.00;;;8.30;90.80;;;;;;5076730;28;20043;-73
2021/09/06 02:08:34;;;;;;;0.10;0.10;;;8.30;90.80;;;;;;5076860;28;20465;-75
2021/09/06 02:11:00;;;;;;;0.00;0.00;;;8.20;91.10;;;;;;5058689;28;20035;-75
2021/09/06 02:13:26;;;;;;;0.00;0.00;;;8.20;91.40;;;;;;5058729;28;20050;-75
2021/09/06 02:15:51;;;;;;;0.00;0.00;;;8.10;91.50;;;;;;5058631;28;20477;-75
2021/09/06 02:18:17;;;;;;;0.10;0.10;;;8.10;91.70;;;;;;5076407;28;20029;-75
2021/09/06 02:20:43;;;;;;;0.00;0.00;;;8.10;91.70;;;;;;5076494;28;20029;-74
2021/09/06 02:23:09;;;;;;;0.00;0.00;;;8.00;91.80;;;;;;5076373;28;20515;-75
2021/09/06 02:25:35;;;;;;;0.00;0.00;;;8.00;92.10;;;;;;5076378;28;20024;-75
2021/09/06 02:28:01;;;;;;;0.00;0.00;;;7.90;92.30;;;;;;5058365;28;20020;-75
2021/09/06 02:30:27;;;;;;;0.00;0.00;;;7.90;92.40;;;;;;5076755;28;20086;-75
2021/09/06 02:32:53;;;;;;;0.00;0.00;;;7.90;92.50;;;;;;5076220;28;20469;-75
2021/09/06 02:35:19;;;;;;;0.00;0.00;;;7.90;92.70;;;;;;5076618;28;20493;-75
2021/09/06 02:37:44;;;;;;;0.00;0.00;;;7.90;92.70;;;;;;5076111;28;20037;-75
2021/09/06 02:40:11;;;;;;;0.00;0.00;;;7.90;92.60;;;;;;5076796;28;20522;-75
2021/09/06 02:42:37;;;;;;;0.00;0.00;;;7.90;92.70;;;;;;5058418;28;20024;-75
2021/09/06 02:45:03;;;;;;;0.00;0.00;;;7.90;92.80;;;;;;5076545;28;20029;-75
2021/09/06 02:47:30;;;;;;;0.05;0.05;;;7.90;92.80;;;;;;5076037;28;20029;-75
2021/09/06 02:49:57;;;;;;;0.03;0.03;;;7.90;92.90;;;;;;5076529;28;20074;-75
2021/09/06 02:52:24;;;;;;;0.08;0.08;;;7.90;92.90;;;;;;5076130;28;20025;-74
2021/09/06 02:54:50;;;;;;;0.00;0.00;;;7.90;93.00;;;;;;5077797;28;20064;-75
2021/09/06 02:57:16;;;;;;;0.00;0.00;;;7.90;92.80;;;;;;5075754;28;20083;-75
2021/09/06 02:59:41;;;;;;;0.00;0.00;;;7.90;92.80;;;;;;5076088;28;20036;-75
2021/09/06 03:02:07;;;;;;;0.00;0.00;;;7.90;93.00;;;;;;5075715;28;20020;-75
2021/09/06 03:04:32;;;;;;;0.00;0.00;;;7.90;93.00;;;;;;5076150;28;20155;-75
2021/09/06 03:06:58;;;;;;;0.00;0.00;;;7.80;93.10;;;;;;5075596;28;20056;-75
2021/09/06 03:09:24;;;;;;;0.10;0.10;;;7.80;93.30;;;;;;5075969;28;20067;-75
2021/09/06 03:11:50;;;;;;;0.10;0.10;;;7.80;93.40;;;;;;5075739;28;20481;-75
2021/09/06 03:14:15;;;;;;;0.00;0.00;;;7.80;93.50;;;;;;5058181;28;20043;-75
2021/09/06 03:16:41;;;;;;;0.00;0.00;;;7.80;93.60;;;;;;5074773;28;20021;-75
2021/09/06 03:19:06;;;;;;;0.00;0.00;;;7.80;93.60;;;;;;5073889;28;20060;-75
2021/09/06 03:21:32;;;;;;;0.00;0.00;;;7.70;93.70;;;;;;5074773;28;20100;-75
2021/09/06 03:23:58;;;;;;;0.00;0.00;;;7.70;93.90;;;;;;5075441;28;20043;-75
2021/09/06 03:26:24;;;;;;;0.00;0.00;;;7.70;94.00;;;;;;5075637;28;20123;-75
2021/09/06 03:28:49;;;;;;;0.00;0.00;;;7.70;94.20;;;;;;5075324;28;20488;-75
2021/09/06 03:31:15;;;;;;;0.00;0.00;;;7.80;94.20;;;;;;5074139;28;20021;-75
2021/09/06 03:33:41;;;;;;;0.00;0.00;;;7.80;94.30;;;;;;5074911;28;20025;-75
2021/09/06 03:36:07;;;;;;;0.00;0.00;;;7.80;94.20;;;;;;5074261;28;20470;-75
2021/09/06 03:38:33;;;;;;;0.00;0.00;;;7.80;94.30;;;;;;5074162;28;20068;-75
2021/09/06 03:40:59;;;;;;;0.00;0.00;;;7.80;94.30;;;;;;5073444;28;20024;-75
2021/09/06 03:43:24;;;;;;;0.10;0.10;;;7.90;94.30;;;;;;5073550;28;20554;-75
2021/09/06 03:45:50;;;;;;;0.00;0.00;;;7.90;94.30;;;;;;5073503;28;20021;-75
2021/09/06 03:48:16;;;;;;;0.03;0.03;;;8.00;94.30;;;;;;5073139;28;20059;-75
2021/09/06 03:50:42;;;;;;;0.03;0.03;;;8.10;94.30;;;;;;5073592;28;20017;-73
2021/09/06 03:53:07;;;;;;;0.00;0.00;;;8.20;94.20;;;;;;5054817;28;20359;-73
2021/09/06 03:55:33;;;;;;;0.03;0.03;;;8.20;94.00;;;;;;5074462;28;20064;-75
2021/09/06 03:57:59;;;;;;;0.00;0.00;;;8.30;93.80;;;;;;5072802;28;20028;-74
2021/09/06 04:00:24;;;;;;;0.00;0.00;;;8.40;93.60;;;;;;5072987;28;20324;-73
2021/09/06 04:02:50;;;;;;;0.10;0.10;;;8.50;93.30;;;;;;5054613;28;20033;-74
2021/09/06 04:05:16;;;;;;;0.00;0.00;;;8.60;93.20;;;;;;5073632;28;20151;-74
2021/09/06 04:07:42;;;;;;;0.10;0.10;;;8.60;93.00;;;;;;5073159;28;20032;-73
2021/09/06 04:10:08;;;;;;;0.00;0.00;;;8.80;92.70;;;;;;5073697;28;20040;-73
2021/09/06 04:12:33;;;;;;;0.00;0.00;;;8.80;92.40;;;;;;5072687;28;20110;-73
2021/09/06 04:15:00;;;;;;;0.10;0.10;;;8.90;92.30;;;;;;5072701;28;20056;-74
2021/09/06 04:17:26;;;;;;;0.10;0.10;;;9.00;92.30;;;;;;5074172;28;20025;-73
2021/09/06 04:19:52;;;;;;;0.05;0.05;;;9.10;92.10;;;;;;5074523;28;20044;-74
2021/09/06 04:22:17;;;;;;;0.00;0.00;;;9.30;91.80;;;;;;5074057;28;20029;-73
2021/09/06 04:24:43;;;;;;;0.00;0.00;;;9.40;91.70;;;;;;5074325;28;20032;-73
2021/09/06 04:27:09;;;;;;;0.00;0.00;;;9.50;91.20;;;;;;5055547;28;20066;-74
2021/09/06 04:29:34;;;;;;;0.10;0.10;;;9.60;91.10;;;;;;5074293;28;20032;-74
2021/09/06 04:32:00;;;;;;;0.00;0.00;;;9.70;91.00;;;;;;5073940;28;20063;-74
2021/09/06 04:34:26;;;;;;;0.10;0.10;;;9.90;90.60;;;;;;5074176;28;20047;-73
2021/09/06 04:36:51;;;;;;;0.00;0.00;;;10.00;90.10;;;;;;5074166;28;20021;-74
2021/09/06 04:39:17;;;;;;;0.00;0.00;;;10.20;89.90;;;;;;5055927;28;20036;-75
2021/09/06 04:41:42;;;;;;;0.10;0.10;;;10.50;89.20;;;;;;5073678;28;20024;-74
2021/09/06 04:44:08;;;;;;;0.10;0.10;;;10.60;89.10;;;;;;5072446;28;20081;-74
2021/09/06 04:46:34;;;;;;;0.10;0.10;;;10.90;88.90;;;;;;5070040;28;20062;-74
2021/09/06 04:48:59;;;;;;;0.08;0.08;;;11.20;87.70;;;;;;5070477;28;20036;-75
2021/09/06 04:51:25;;;;;;;0.03;0.03;;;11.50;87.50;;;;;;5070861;28;20484;-74
2021/09/06 04:53:52;;;;;;;0.10;0.10;;;11.90;86.70;;;;;;5071174;28;20055;-74
2021/09/06 04:56:19;;;;;;;0.10;0.10;;;12.50;85.70;;;;;;5072720;28;20488;-74
2021/09/06 04:58:45;;;;;;;0.10;0.10;;;13.00;84.00;;;;;;5071316;28;20040;-76
2021/09/06 05:01:11;;;;;;;0.10;0.10;;;13.30;81.60;;;;;;5072508;28;20500;-75
2021/09/06 05:03:37;;;;;;;0.10;0.10;;;13.50;80.20;;;;;;5054616;28;20037;-75
2021/09/06 05:06:02;;;;;;;0.10;0.10;;;14.00;80.40;;;;;;5078875;28;20051;-74
2021/09/06 05:08:28;;;;;;;0.10;0.10;;;14.70;79.40;;;;;;5072632;28;20102;-75
2021/09/06 05:10:55;;;;;;;0.10;0.10;;;15.30;78.00;;;;;;5073117;28;20308;-75
2021/09/06 05:13:22;;;;;;;0.10;0.10;;;15.70;75.60;;;;;;5068982;28;20323;-76
2021/09/06 05:15:48;;;;;;;0.10;0.10;;;15.90;74.20;;;;;;5052593;28;20020;-74
2021/09/06 05:18:14;;;;;;;0.10;0.10;;;16.10;73.70;;;;;;5053841;28;20048;-75
2021/09/06 05:20:40;;;;;;;0.10;0.10;;;16.30;72.80;;;;;;5070052;28;20457;-72
2021/09/06 05:23:07;;;;;;;0.10;0.10;;;16.50;71.80;;;;;;5068965;28;20017;-73
2021/09/06 05:25:34;;;;;;;0.00;0.00;;;16.40;71.10;;;;;;5050248;28;20513;-74
2021/09/06 05:28:06;;;;;;;0.10;0.10;;;16.50;70.70;;;;;;5069411;28;20021;-74
2021/09/06 05:30:31;;;;;;;0.03;0.03;;;16.40;70.20;;;;;;5051017;28;20044;-73
2021/09/06 05:32:57;;;;;;;0.10;0.10;;;16.40;69.90;;;;;;5069616;28;20021;-75
2021/09/06 05:35:23;;;;;;;0.03;0.03;;;16.60;70.10;;;;;;5035403;28;20161;-76
2021/09/06 05:37:49;;;;;;;0.10;0.10;;;16.80;69.60;;;;;;5069525;28;20088;-77
2021/09/06 05:40:14;;;;;;;0.10;0.10;;;16.90;68.70;;;;;;5075334;28;20056;-77
2021/09/06 05:42:40;;;;;;;0.10;0.10;;;17.10;68.80;;;;;;5075211;28;20016;-76
2021/09/06 05:45:07;;;;;;;0.10;0.10;;;17.60;67.90;;;;;;5057165;28;20575;-78
2021/09/06 05:47:32;;;;;;;0.10;0.10;;;17.90;67.20;;;;;;5076058;28;20050;-77
2021/09/06 05:49:58;;;;;;;0.10;0.10;;;18.30;66.30;;;;;;5075232;28;20040;-76
2021/09/06 05:52:24;;;;;;;0.00;0.00;;;18.60;65.40;;;;;;5055452;28;20025;-75
2021/09/06 05:54:55;;;;;;;0.10;0.10;;;18.50;64.30;;;;;;5112159;22;20040;-82
2021/09/06 05:57:23;;;;;;;0.10;0.10;;;18.30;63.70;;;;;;5083648;28;20036;-82
2021/09/06 05:59:57;;;;;;;0.10;0.10;;;18.20;64.00;;;;;;5065974;28;20025;-82
2021/09/06 06:02:28;;;;;;;0.10;0.10;;;18.40;63.70;;;;;;5065995;28;20024;-79
2021/09/06 06:04:56;;;;;;;0.00;0.00;;;18.90;63.80;;;;;;5081660;28;20021;-80
2021/09/06 06:07:25;;;;;;;0.00;0.00;;;19.40;63.00;;;;;;5062863;28;20060;-81
2021/09/06 06:09:52;;;;;;;0.08;0.08;;;19.70;61.60;;;;;;5080396;28;20044;-79
2021/09/06 06:12:18;;;;;;;0.00;0.00;;;19.60;60.90;;;;;;5077417;28;20043;-80
2021/09/06 06:14:44;;;;;;;0.00;0.00;;;19.60;60.40;;;;;;5059571;28;20056;-79
2021/09/06 06:17:09;;;;;;;0.00;0.00;;;19.40;59.50;;;;;;5078856;28;20084;-79
2021/09/06 06:19:36;;;;;;;0.00;0.00;;;19.10;59.50;;;;;;5076035;28;20039;-79
2021/09/06 06:22:07;;;;;;;0.03;0.03;;;18.90;59.70;;;;;;5055603;28;20063;-78
2021/09/06 06:24:33;;;;;;;0.00;0.00;;;18.80;59.40;;;;;;5073117;28;20063;-76
2021/09/06 06:27:02;;;;;;;0.00;0.00;;;18.80;60.00;;;;;;5074125;28;20021;-81
2021/09/06 06:29:27;;;;;;;0.00;0.00;;;19.10;59.80;;;;;;5059871;28;20032;-77
2021/09/06 06:31:56;;;;;;;0.00;0.00;;;19.20;59.60;;;;;;5079359;28;20025;-79
2021/09/06 06:34:34;;;;;;;0.00;0.00;;;19.20;59.00;;;;;;5061919;28;20029;-81
2021/09/06 06:37:00;;;;;;;0.00;0.00;;;19.00;58.20;;;;;;5082859;28;20420;-77
2021/09/06 06:39:27;;;;;;;0.05;0.05;;;19.00;58.70;;;;;;5078980;28;20078;-81
2021/09/06 06:41:53;;;;;;;0.00;0.00;;;19.20;58.10;;;;;;5062388;28;20024;-78
2021/09/06 06:44:19;;;;;;;0.10;0.10;;;19.30;57.90;;;;;;5077147;28;20039;-79
2021/09/06 06:46:45;;;;;;;0.10;0.10;;;19.80;57.80;;;;;;5078770;28;20024;-77
2021/09/06 06:49:13;;;;;;;0.10;0.10;;;20.60;57.50;;;;;;5080487;28;20025;-81
2021/09/06 06:52:17;;;;;;;0.00;0.00;;;21.60;56.00;;;;;;5084633;28;20032;-85
2021/09/06 06:54:45;;;;;;;0.00;0.00;;;22.40;54.80;;;;;;5051751;22;20047;-77
2021/09/06 06:57:34;;;;;;;0.00;0.00;;;23.20;53.70;;;;;;5071333;28;20285;-74
2021/09/06 07:00:06;;;;;;;0.00;0.00;;;23.60;51.30;;;;;;5048799;28;20094;-74
2021/09/06 07:02:38;;;;;;;0.00;0.00;;;23.60;51.60;;;;;;5053942;28;20024;-73
2021/09/06 07:05:43;;;;;;;0.00;0.00;;;23.50;49.80;;;;;;5071363;28;20025;-74
2021/09/06 07:08:12;;;;;;;0.00;0.00;;;23.60;50.20;;;;;;5072001;28;20383;-74
2021/09/06 07:11:08;;;;;;;0.00;0.00;;;23.60;50.60;;;;;;5031878;28;20117;-75
2021/09/06 07:13:34;;;;;;;0.00;0.00;;;23.70;50.20;;;;;;5014173;28;20080;-74
2021/09/06 07:16:01;;;;;;;0.00;0.00;;;24.00;49.40;;;;;;5011793;28;20060;-76
2021/09/06 07:18:27;;;;;;;0.00;0.00;;;24.40;48.70;;;;;;5011181;28;20451;-75
2021/09/06 07:20:52;;;;;;;0.00;0.00;;;24.70;48.20;;;;;;5025796;28;20045;-75
2021/09/06 07:23:18;;;;;;;0.00;0.00;;;25.30;47.90;;;;;;5024570;28;20514;-75
2021/09/06 07:25:44;;;;;;;0.00;0.00;;;25.70;47.30;;;;;;5010890;28;20105;-75
2021/09/06 07:28:10;;;;;;;0.00;0.00;;;26.10;46.50;;;;;;5011074;28;20429;-75
2021/09/06 07:30:35;;;;;;;0.00;0.00;;;26.40;46.00;;;;;;5030186;28;20060;-73
2021/09/06 07:33:05;;;;;;;0.00;0.00;;;26.40;45.30;;;;;;5031581;28;20037;-73
2021/09/06 07:35:31;;;;;;;0.00;0.00;;;26.50;44.40;;;;;;5028396;28;20072;-75
2021/09/06 07:37:57;;;;;;;0.00;0.00;;;26.30;44.00;;;;;;5029030;28;20037;-77
2021/09/06 07:40:23;;;;;;;0.00;0.00;;;25.90;43.90;;;;;;5011561;28;20111;-77
2021/09/06 07:42:48;;;;;;;0.00;0.00;;;25.50;43.60;;;;;;5053107;28;20489;-75
2021/09/06 07:45:14;;;;;;;0.00;0.00;;;25.20;43.90;;;;;;5071121;28;20106;-75
2021/09/06 07:47:40;;;;;;;0.00;0.00;;;25.30;43.60;;;;;;5049959;28;20034;-76
2021/09/06 07:50:09;;;;;;;0.00;0.00;;;25.30;43.20;;;;;;5070592;28;20036;-76
2021/09/06 07:52:35;;;;;;;0.00;0.00;;;25.30;42.80;;;;;;5071125;28;20021;-75
2021/09/06 07:55:06;;;;;;;0.00;0.00;;;25.40;42.20;;;;;;5072385;28;20130;-76
2021/09/06 07:57:33;;;;;;;0.00;0.00;;;25.70;42.20;;;;;;5071863;28;20036;-74
2021/09/06 07:59:58;;;;;;;0.00;0.00;;;25.80;41.40;;;;;;5054458;28;20024;-77
2021/09/06 08:02:24;;;;;;;0.00;0.00;;;25.50;40.60;;;;;;5054763;28;20039;-77
2021/09/06 08:04:50;;;;;;;0.00;0.00;;;25.10;40.20;;;;;;5072880;28;20025;-73
2021/09/06 08:07:16;;;;;;;0.00;0.00;;;24.60;40.70;;;;;;5057772;28;20029;-75
2021/09/06 08:09:42;;;;;;;0.00;0.00;;;24.40;41.00;;;;;;5077388;28;20066;-77
2021/09/06 08:12:11;;;;;;;0.05;0.05;;;24.30;41.00;;;;;;5074363;28;20025;-80
2021/09/06 08:14:38;;;;;;;0.00;0.00;;;24.10;40.70;;;;;;5057872;28;20173;-77
2021/09/06 08:17:05;;;;;;;0.00;0.00;;;23.70;41.30;;;;;;5054063;28;20028;-76
2021/09/06 08:19:31;;;;;;;0.00;0.00;;;23.70;41.50;;;;;;5069262;28;20076;-77
2021/09/06 08:21:56;;;;;;;0.00;0.00;;;23.50;41.40;;;;;;5051889;28;20111;-75
2021/09/06 08:24:26;;;;;;;0.00;0.00;;;23.30;41.80;;;;;;5070796;28;20500;-76
2021/09/06 08:26:51;;;;;;;0.00;0.00;;;23.10;42.00;;;;;;5070356;28;20024;-76
2021/09/06 08:29:18;;;;;;;0.00;0.00;;;22.80;41.90;;;;;;5071238;28;20027;-76
2021/09/06 08:31:44;;;;;;;0.00;0.00;;;22.50;42.00;;;;;;5070496;28;20119;-75
2021/09/06 08:34:11;;;;;;;0.00;0.00;;;22.10;42.20;;;;;;5068094;28;20043;-76
2021/09/06 08:36:37;;;;;;;0.10;0.10;;;21.80;43.00;;;;;;5066802;28;20021;-74
2021/09/06 08:39:03;;;;;;;0.00;0.00;;;21.60;43.40;;;;;;5067706;28;20378;-75
2021/09/06 08:41:29;;;;;;;0.00;0.00;;;22.20;43.60;;;;;;5068252;28;20120;-78
2021/09/06 08:43:56;;;;;;;0.00;0.00;;;23.20;44.20;;;;;;5067558;28;20474;-74
2021/09/06 08:46:23;;;;;;;0.00;0.00;;;24.20;42.70;;;;;;5066297;28;20094;-73
2021/09/06 08:48:50;;;;;;;0.00;0.00;;;25.20;41.80;;;;;;5066754;28;20048;-77
2021/09/06 08:51:20;;;;;;;0.00;0.00;;;26.20;41.20;;;;;;5047512;28;20032;-75
2021/09/06 08:53:45;;;;;;;0.00;0.00;;;27.00;40.20;;;;;;5034008;28;20020;-74
2021/09/06 08:56:11;;;;;;;0.00;0.00;;;27.30;39.00;;;;;;5051932;28;20040;-74
2021/09/06 08:58:37;;;;;;;0.00;0.00;;;27.30;38.60;;;;;;5069946;28;20036;-74
2021/09/06 09:01:03;;;;;;;0.00;0.00;;;27.00;38.60;;;;;;5069097;28;20033;-75
2021/09/06 09:03:29;;;;;;;0.05;0.03;;;26.90;38.40;;;;;;5070611;28;20027;-74
2021/09/06 09:06:02;;;;;;;0.00;0.00;;;27.10;38.20;;;;;;5053022;28;20028;-78
2021/09/06 09:08:29;;;;;;;0.00;0.00;;;27.80;38.60;;;;;;5073578;28;20078;-77
2021/09/06 09:11:04;;;;;;;0.00;0.00;;;28.50;38.10;;;;;;5072011;28;20024;-76
2021/09/06 09:13:35;;;;;;;0.00;0.00;;;28.80;37.40;;;;;;5070109;28;20504;-77
2021/09/06 09:16:04;;;;;;;0.00;0.00;;;29.00;37.40;;;;;;5071733;28;20090;-77
2021/09/06 09:18:35;;;;;;;0.00;0.00;;;29.00;37.70;;;;;;5050869;28;20040;-76
2021/09/06 09:21:06;;;;;;;0.00;0.00;;;29.10;37.20;;;;;;5066861;28;20063;-74
2021/09/06 09:23:51;;;;;;;0.00;0.00;;;28.50;36.20;;;;;;5063684;28;20048;-76
2021/09/06 09:26:16;;;;;;;0.00;0.00;;;27.50;36.20;;;;;;5065211;28;20367;-75
2021/09/06 09:28:45;;;;;;;0.00;0.00;;;26.40;37.00;;;;;;5047836;28;20029;-75
2021/09/06 09:31:17;;;;;;;0.00;0.00;;;25.50;37.30;;;;;;5065980;28;20024;-76
2021/09/06 09:33:48;;;;;;;0.00;0.00;;;24.60;38.50;;;;;;5049114;28;20050;-74
2021/09/06 09:36:27;;;;;;;0.00;0.00;;;23.90;39.10;;;;;;5067480;28;20035;-75
2021/09/06 09:39:07;;;;;;;0.00;0.00;;;23.30;39.80;;;;;;5069329;28;20040;-75
2021/09/06 09:41:33;;;;;;;0.00;0.00;;;22.90;40.40;;;;;;5050936;28;20052;-72
2021/09/06 09:44:25;;;;;;;0.00;0.00;;;22.60;41.10;;;;;;5068676;28;20059;-75
2021/09/06 09:47:02;;;;;;;0.00;0.00;;;22.60;41.30;;;;;;5071154;28;20036;-73
2021/09/06 09:49:31;;;;;;;0.00;0.00;;;22.60;41.20;;;;;;5069566;28;20108;-73
2021/09/06 09:51:57;;;;;;;0.00;0.00;;;22.60;41.00;;;;;;5052027;28;20036;-73
2021/09/06 09:54:25;;;;;;;0.00;0.00;;;22.40;41.30;;;;;;5070288;28;20028;-72
2021/09/06 09:56:51;;;;;;;0.00;0.00;;;22.30;41.30;;;;;;5053280;28;20032;-73
2021/09/06 09:59:18;;;;;;;0.00;0.00;;;22.50;41.60;;;;;;5069003;28;20084;-73
2021/09/06 10:02:02;;;;;;;0.00;0.00;;;23.20;41.50;;;;;;5068515;28;20570;-74
2021/09/06 10:04:34;;;;;;;0.00;0.00;;;24.20;40.20;;;;;;5069492;28;20025;-72
2021/09/06 10:07:01;;;;;;;0.00;0.00;;;25.40;39.80;;;;;;5068992;28;20254;-75
2021/09/06 10:09:38;;;;;;;0.00;0.00;;;26.50;39.00;;;;;;5068780;28;20583;-73
2021/09/06 10:12:05;;;;;;;0.00;0.00;;;27.50;38.30;;;;;;5069716;28;20048;-75
2021/09/06 10:14:32;;;;;;;0.00;0.00;;;28.20;37.60;;;;;;5067956;28;20024;-74
2021/09/06 10:17:08;;;;;;;0.00;0.00;;;28.20;37.20;;;;;;5067081;28;20202;-73
2021/09/06 10:19:41;;;;;;;0.00;0.00;;;28.20;36.10;;;;;;5052624;28;20115;-74
2021/09/06 10:22:18;;;;;;;0.00;0.00;;;27.90;37.00;;;;;;5071168;28;20214;-71
2021/09/06 10:25:00;;;;;;;0.00;0.00;;;27.50;37.00;;;;;;5072300;28;20028;-76
2021/09/06 10:27:28;;;;;;;0.00;0.00;;;27.10;36.10;;;;;;5073930;28;20028;-72
2021/09/06 10:30:10;;;;;;;0.00;0.00;;;26.50;36.80;;;;;;5073337;28;20024;-72
2021/09/06 10:32:44;;;;;;;0.00;0.00;;;25.90;36.90;;;;;;5072952;28;20521;-72
2021/09/06 10:35:20;;;;;;;0.00;0.00;;;25.20;37.50;;;;;;5073489;28;20529;-73
2021/09/06 10:38:08;;;;;;;0.00;0.00;;;24.40;38.30;;;;;;5072349;28;20135;-73
2021/09/06 10:40:39;;;;;;;0.00;0.00;;;23.70;38.50;;;;;;5055066;28;20024;-72
2021/09/06 10:43:41;;;;;;;0.00;0.00;;;23.20;38.80;;;;;;5074077;28;20021;-74
2021/09/06 10:46:07;;;;;;;0.10;0.10;;;22.80;39.30;;;;;;5061147;28;20040;-73
2021/09/06 10:48:35;;;;;;;0.00;0.00;;;22.70;39.70;;;;;;5074851;28;20074;-74
2021/09/06 10:51:02;;;;;;;0.08;0.08;;;22.80;39.80;;;;;;5075327;28;20408;-72
2021/09/06 10:53:28;;;;;;;0.10;0.10;;;23.30;40.50;;;;;;5073715;28;20067;-72
2021/09/06 10:55:57;;;;;;;0.00;0.00;;;24.10;40.00;;;;;;5073215;28;20036;-73
2021/09/06 10:58:25;;;;;;;0.00;0.00;;;25.00;39.50;;;;;;5070756;28;20040;-73
2021/09/06 11:00:54;;;;;;;0.00;0.00;;;25.90;38.80;;;;;;5069679;28;20568;-75
2021/09/06 11:03:21;;;;;;;0.00;0.00;;;26.70;38.10;;;;;;5051196;28;20069;-74
2021/09/06 11:05:51;;;;;;;0.00;0.00;;;27.40;37.40;;;;;;5068057;28;20075;-74
2021/09/06 11:08:26;;;;;;;0.00;0.00;;;28.00;36.90;;;;;;5065429;28;20124;-74
2021/09/06 11:10:56;;;;;;;0.00;0.00;;;28.20;36.20;;;;;;5049678;28;20028;-74
2021/09/06 11:13:23;;;;;;;0.00;0.00;;;28.30;36.10;;;;;;5067212;28;20024;-75
2021/09/06 11:15:49;;;;;;;0.00;0.00;;;28.40;36.00;;;;;;5069581;28;20033;-73
2021/09/06 11:18:14;;;;;;;0.00;0.00;;;28.40;35.50;;;;;;5067905;28;20044;-75
2021/09/06 11:20:46;;;;;;;0.00;0.00;;;27.90;34.70;;;;;;5051241;28;20617;-75
2021/09/06 11:23:11;;;;;;;0.00;0.00;;;27.00;35.30;;;;;;5071406;28;20032;-74
2021/09/06 11:25:40;;;;;;;0.00;0.00;;;26.10;35.70;;;;;;5071241;28;20032;-76
2021/09/06 11:28:11;;;;;;;0.00;0.00;;;25.20;36.50;;;;;;5070324;28;20082;-75
2021/09/06 11:30:41;;;;;;;0.00;0.00;;;24.40;37.20;;;;;;5069838;28;20027;-74
2021/09/06 11:33:09;;;;;;;0.00;0.00;;;23.80;37.60;;;;;;5068724;28;20177;-74
2021/09/06 11:35:40;;;;;;;0.00;0.00;;;23.30;38.00;;;;;;5068685;28;20119;-74
2021/09/06 11:38:09;;;;;;;0.00;0.00;;;23.20;38.40;;;;;;5067164;28;20041;-75
2021/09/06 11:40:36;;;;;;;0.00;0.00;;;23.20;38.60;;;;;;5068605;28;20531;-75
2021/09/06 11:43:03;;;;;;;0.00;0.00;;;23.30;38.60;;;;;;5068281;28;20032;-75
2021/09/06 11:45:30;;;;;;;0.00;0.00;;;23.60;38.60;;;;;;5069892;28;20036;-73
2021/09/06 11:48:03;;;;;;;0.00;0.00;;;24.20;38.40;;;;;;5072202;28;20108;-73
2021/09/06 11:50:40;;;;;;;0.00;0.00;;;24.90;37.80;;;;;;5073115;28;20374;-73
2021/09/06 11:53:15;;;;;;;0.00;0.00;;;25.30;37.10;;;;;;5056583;28;20033;-72
2021/09/06 11:55:54;;;;;;;0.00;0.00;;;25.10;36.50;;;;;;5068260;22;20016;-77
2021/09/06 11:58:25;;;;;;;0.00;0.00;;;24.60;36.30;;;;;;5073932;28;20064;-76
2021/09/06 12:00:51;;;;;;;0.00;0.00;;;24.20;37.10;;;;;;5074000;28;20028;-75
2021/09/06 12:03:25;;;;;;;0.00;0.00;;;24.10;37.60;;;;;;5072592;28;20028;-76
2021/09/06 12:05:55;;;;;;;0.00;0.00;;;24.10;37.30;;;;;;5054808;28;20032;-80
2021/09/06 12:08:22;;;;;;;0.00;0.00;;;24.10;37.20;;;;;;5071682;28;20025;-76
2021/09/06 12:10:48;;;;;;;0.00;0.00;;;24.10;37.60;;;;;;5070851;28;20029;-78
2021/09/06 12:13:17;;;;;;;0.00;0.00;;;24.00;37.60;;;;;;5057215;28;20085;-78
2021/09/06 12:15:56;;;;;;;0.00;0.00;;;23.90;38.20;;;;;;5056413;28;20422;-78
2021/09/06 12:18:22;;;;;;;0.00;0.00;;;23.60;37.80;;;;;;5071916;28;20037;-78
2021/09/06 12:20:48;;;;;;;0.00;0.00;;;23.20;38.10;;;;;;5057509;28;20024;-79
2021/09/06 12:23:28;;;;;;;0.00;0.00;;;22.90;38.40;;;;;;5056537;28;20082;-79
2021/09/06 12:25:54;;;;;;;0.00;0.00;;;22.30;39.10;;;;;;5053253;28;20020;-79
2021/09/06 12:28:19;;;;;;;0.00;0.00;;;21.80;39.40;;;;;;5054831;28;20036;-79
2021/09/06 12:30:56;;;;;;;0.00;0.00;;;21.30;39.90;;;;;;5071540;28;20130;-80
2021/09/06 12:33:22;;;;;;;0.00;0.00;;;20.90;40.40;;;;;;5077244;28;20066;-79
2021/09/06 12:35:47;;;;;;;0.00;0.00;;;20.40;41.00;;;;;;5073271;28;20543;-79
2021/09/06 12:38:14;;;;;;;0.00;0.00;;;20.00;42.10;;;;;;5074550;28;20040;-79
2021/09/06 12:40:39;;;;;;;0.00;0.00;;;19.70;42.00;;;;;;5078267;28;20386;-79
2021/09/06 12:43:05;;;;;;;0.03;0.03;;;19.50;42.30;;;;;;5058718;28;20173;-79
2021/09/06 12:45:31;;;;;;;0.00;0.00;;;19.50;42.70;;;;;;5073738;28;20024;-80
2021/09/06 12:47:57;;;;;;;0.00;0.00;;;19.40;42.90;;;;;;5057675;28;20028;-79
2021/09/06 12:50:23;;;;;;;0.03;0.03;;;19.50;43.10;;;;;;5076146;28;20024;-80
2021/09/06 12:52:49;;;;;;;0.00;0.00;;;19.80;42.90;;;;;;5055985;28;20033;-79
2021/09/06 12:55:15;;;;;;;0.00;0.00;;;19.90;43.00;;;;;;5073268;28;20047;-79
2021/09/06 12:57:40;;;;;;;0.00;0.00;;;20.20;42.40;;;;;;5078511;28;20040;-79